createdAt,value
2018-05-14T00:00:22.311Z,95.30
2018-05-14T00:02:49.352Z,95.08
2018-05-14T00:05:16.386Z,95.41
2018-05-14T00:07:43.417Z,95.76
2018-05-14T00:10:10.580Z,95.54
2018-05-14T00:12:37.640Z,95.19
2018-05-14T00:15:04.688Z,94.71
2018-05-14T00:17:31.791Z,94.60
2018-05-14T00:19:58.948Z,95.28
2018-05-14T00:22:26.117Z,95.64
2018-05-14T00:24:53.212Z,95.57
2018-05-14T00:27:20.483Z,95.57
2018-05-14T00:29:48.294Z,95.42
2018-05-14T00:32:15.299Z,95.46
2018-05-14T00:34:42.313Z,95.60
2018-05-14T00:37:09.369Z,95.27
2018-05-14T00:39:36.519Z,95.30
2018-05-14T00:42:04.014Z,95.23
2018-05-14T00:44:31.138Z,94.80
2018-05-14T00:46:58.584Z,94.78
2018-05-14T00:49:25.952Z,94.56
2018-05-14T00:55:05.801Z,95.22
2018-05-14T00:57:32.823Z,95.65
2018-05-14T00:59:59.858Z,95.84
2018-05-14T01:02:27.003Z,95.83
2018-05-14T01:04:54.028Z,95.71
2018-05-14T01:07:21.161Z,95.67
2018-05-14T01:09:48.299Z,94.63
2018-05-14T01:12:15.443Z,95.03
2018-05-14T01:14:42.530Z,94.59
2018-05-14T01:17:09.571Z,95.22
2018-05-14T01:19:36.609Z,95.80
2018-05-14T01:22:03.644Z,95.71
2018-05-14T01:24:30.733Z,95.49
2018-05-14T01:26:57.762Z,94.88
2018-05-14T01:29:24.837Z,93.48
2018-05-14T01:31:52.019Z,93.73
2018-05-14T01:34:19.297Z,93.41
2018-05-14T01:36:46.467Z,93.86
2018-05-14T01:39:13.574Z,94.30
2018-05-14T01:41:40.977Z,94.28
2018-05-14T01:44:08.088Z,94.03
2018-05-14T01:46:35.417Z,94.08
2018-05-14T01:49:02.493Z,93.79
2018-05-14T01:51:29.744Z,93.67
2018-05-14T01:53:56.938Z,93.68
2018-05-14T01:56:24.005Z,93.86
2018-05-14T01:58:51.013Z,93.67
2018-05-14T02:01:19.195Z,93.84
2018-05-14T02:03:46.397Z,93.67
2018-05-14T02:06:13.582Z,93.95
2018-05-14T02:08:40.741Z,94.16
2018-05-14T02:11:07.821Z,94.05
2018-05-14T02:13:34.952Z,93.48
2018-05-14T02:16:02.929Z,93.32
2018-05-14T02:18:30.027Z,94.24
2018-05-14T02:20:57.156Z,94.12
2018-05-14T02:23:24.296Z,94.09
2018-05-14T02:25:51.423Z,93.68
2018-05-14T02:28:18.461Z,93.78
2018-05-14T02:30:45.512Z,93.29
2018-05-14T02:33:12.589Z,93.58
2018-05-14T02:35:39.713Z,94.14
2018-05-14T02:38:06.847Z,93.46
2018-05-14T02:40:34.058Z,93.43
2018-05-14T02:43:01.093Z,92.95
2018-05-14T02:45:28.137Z,93.26
2018-05-14T02:47:55.267Z,93.43
2018-05-14T02:50:22.452Z,92.75
2018-05-14T02:52:49.608Z,93.35
2018-05-14T02:55:16.630Z,94.04
2018-05-14T02:57:43.693Z,93.86
2018-05-14T03:00:10.728Z,94.10
2018-05-14T03:02:37.804Z,93.66
2018-05-14T03:05:04.852Z,93.86
2018-05-14T03:07:31.983Z,93.93
2018-05-14T03:09:59.128Z,94.02
2018-05-14T03:12:26.263Z,93.79
2018-05-14T03:14:53.421Z,93.74
2018-05-14T03:17:20.449Z,94.03
2018-05-14T03:19:47.639Z,94.04
2018-05-14T03:22:14.719Z,94.31
2018-05-14T03:24:42.027Z,95.14
2018-05-14T03:27:09.048Z,95.53
2018-05-14T03:29:36.069Z,95.50
2018-05-14T03:32:03.113Z,95.25
2018-05-14T03:34:30.462Z,95.43
2018-05-14T03:36:57.512Z,94.76
2018-05-14T03:39:24.547Z,94.44
2018-05-14T03:41:51.605Z,94.24
2018-05-14T03:44:18.638Z,94.29
2018-05-14T03:46:45.642Z,94.18
2018-05-14T03:49:12.683Z,93.99
2018-05-14T03:51:40.158Z,93.61
2018-05-14T03:54:07.214Z,93.66
2018-05-14T03:56:34.459Z,93.60
2018-05-14T03:59:07.508Z,94.24
2018-05-14T04:01:40.479Z,94.73
2018-05-14T04:04:13.322Z,94.85
2018-05-14T04:06:40.480Z,95.00
2018-05-14T04:09:07.522Z,94.82
2018-05-14T04:11:34.825Z,94.70
2018-05-14T04:14:03.003Z,94.91
2018-05-14T04:16:30.160Z,95.03
2018-05-14T04:18:57.228Z,95.69
2018-05-14T04:21:24.299Z,95.23
2018-05-14T04:23:51.345Z,95.81
2018-05-14T04:26:18.667Z,95.81
2018-05-14T04:28:45.928Z,96.03
2018-05-14T04:31:13.004Z,96.09
2018-05-14T04:33:40.060Z,95.89
2018-05-14T04:36:07.073Z,95.99
2018-05-14T04:38:34.233Z,96.09
2018-05-14T04:41:01.279Z,96.38
2018-05-14T04:43:29.169Z,96.36
2018-05-14T04:45:56.203Z,96.02
2018-05-14T04:48:23.300Z,96.19
2018-05-14T04:50:50.345Z,96.21
2018-05-14T04:53:17.341Z,95.94
2018-05-14T04:55:44.514Z,96.03
2018-05-14T04:58:11.544Z,95.16
2018-05-14T05:00:39.200Z,95.13
2018-05-14T05:03:06.416Z,94.88
2018-05-14T05:05:33.584Z,95.08
2018-05-14T05:08:00.689Z,94.56
2018-05-14T05:10:27.924Z,94.78
2018-05-14T05:12:54.900Z,93.82
2018-05-14T05:15:22.030Z,94.62
2018-05-14T05:17:49.181Z,94.93
2018-05-14T05:20:16.456Z,94.38
2018-05-14T05:22:43.549Z,93.91
2018-05-14T05:25:10.587Z,94.25
2018-05-14T05:27:37.700Z,94.16
2018-05-14T05:30:04.945Z,93.65
2018-05-14T05:32:32.034Z,93.10
2018-05-14T05:34:59.101Z,92.62
2018-05-14T05:37:26.146Z,93.32
2018-05-14T05:39:53.436Z,93.48
2018-05-14T05:42:20.679Z,93.16
2018-05-14T05:44:47.807Z,92.80
2018-05-14T05:47:14.896Z,92.43
2018-05-14T05:49:42.047Z,91.96
2018-05-14T05:52:09.171Z,92.15
2018-05-14T05:54:38.229Z,91.85
2018-05-14T05:57:05.236Z,92.25
2018-05-14T05:59:32.461Z,92.61
2018-05-14T06:01:59.682Z,92.39
2018-05-14T06:04:26.706Z,91.93
2018-05-14T06:06:53.730Z,91.93
2018-05-14T06:09:21.008Z,92.59
2018-05-14T06:11:48.103Z,92.44
2018-05-14T06:14:15.211Z,92.11
2018-05-14T06:16:42.448Z,91.87
2018-05-14T06:19:09.500Z,92.12
2018-05-14T06:21:36.666Z,91.89
2018-05-14T06:24:03.764Z,91.86
2018-05-14T06:26:30.850Z,91.52
2018-05-14T06:28:57.869Z,91.62
2018-05-14T06:31:25.069Z,91.54
2018-05-14T06:33:52.256Z,91.12
2018-05-14T06:36:19.551Z,90.48
2018-05-14T06:38:46.724Z,90.96
2018-05-14T06:41:13.766Z,90.96
2018-05-14T06:43:40.825Z,91.44
2018-05-14T06:46:08.575Z,91.96
2018-05-14T06:48:35.626Z,92.16
2018-05-14T06:51:02.655Z,91.65
2018-05-14T06:53:29.805Z,90.76
2018-05-14T06:55:57.641Z,90.68
2018-05-14T06:58:24.684Z,90.53
2018-05-14T07:00:51.955Z,89.73
2018-05-14T07:03:20.206Z,89.22
2018-05-14T07:05:47.610Z,89.34
2018-05-14T07:08:14.878Z,90.05
2018-05-14T07:10:42.052Z,89.62
2018-05-14T07:13:09.190Z,89.33
2018-05-14T07:15:36.401Z,88.71
2018-05-14T07:18:03.441Z,87.74
2018-05-14T07:20:30.494Z,87.81
2018-05-14T07:22:57.505Z,87.73
2018-05-14T07:25:24.634Z,87.03
2018-05-14T07:27:51.770Z,86.74
2018-05-14T07:30:18.920Z,86.42
2018-05-14T07:32:46.051Z,84.81
2018-05-14T07:35:13.096Z,83.75
2018-05-14T07:37:40.196Z,82.73
2018-05-14T07:40:07.344Z,82.96
2018-05-14T07:42:34.709Z,83.26
2018-05-14T07:45:01.861Z,82.49
2018-05-14T07:47:29.754Z,81.20
2018-05-14T07:49:56.840Z,82.56
2018-05-14T07:52:23.975Z,83.94
2018-05-14T07:54:51.006Z,84.05
2018-05-14T07:57:18.030Z,83.73
2018-05-14T07:59:45.260Z,84.42
2018-05-14T08:02:12.277Z,83.71
2018-05-14T08:04:39.305Z,84.50
2018-05-14T08:07:06.492Z,83.97
2018-05-14T08:09:33.616Z,83.24
2018-05-14T08:12:00.652Z,83.39
2018-05-14T08:14:27.795Z,82.97
2018-05-14T08:16:54.813Z,82.09
2018-05-14T08:19:21.965Z,81.80
2018-05-14T08:21:49.335Z,82.29
2018-05-14T08:24:16.380Z,83.65
2018-05-14T08:26:44.126Z,83.36
2018-05-14T08:29:11.133Z,83.09
2018-05-14T08:31:38.162Z,82.60
2018-05-14T08:34:05.225Z,81.95
2018-05-14T08:36:32.337Z,83.02
2018-05-14T08:39:00.125Z,83.15
2018-05-14T08:41:27.315Z,82.28
2018-05-14T08:43:54.635Z,83.06
2018-05-14T08:46:21.832Z,83.50
2018-05-14T08:48:49.782Z,84.24
2018-05-14T08:51:16.902Z,83.60
2018-05-14T08:53:43.940Z,82.58
2018-05-14T08:56:11.090Z,82.57
2018-05-14T08:58:38.124Z,83.51
2018-05-14T09:01:05.401Z,83.78
2018-05-14T09:03:32.450Z,84.15
2018-05-14T09:05:59.877Z,83.98
2018-05-14T09:08:27.131Z,83.63
2018-05-14T09:10:54.641Z,83.83
2018-05-14T09:13:21.728Z,84.40
2018-05-14T09:15:48.757Z,83.78
2018-05-14T09:18:15.800Z,83.65
2018-05-14T09:20:42.913Z,84.33
2018-05-14T09:23:09.946Z,84.08
2018-05-14T09:25:37.175Z,84.65
2018-05-14T09:28:04.253Z,84.73
2018-05-14T09:30:31.576Z,83.91
2018-05-14T09:32:58.580Z,84.10
2018-05-14T09:35:25.601Z,83.83
2018-05-14T09:37:52.737Z,82.78
2018-05-14T09:40:19.801Z,83.03
2018-05-14T09:42:46.946Z,83.53
2018-05-14T09:45:14.505Z,83.66
2018-05-14T09:47:41.622Z,83.66
2018-05-14T09:50:08.652Z,84.17
2018-05-14T09:52:35.805Z,84.44
2018-05-14T09:55:02.881Z,84.73
2018-05-14T09:57:29.943Z,84.52
2018-05-14T09:59:56.997Z,85.09
2018-05-14T10:02:24.117Z,85.33
2018-05-14T10:04:51.151Z,84.80
2018-05-14T10:07:18.369Z,84.89
2018-05-14T10:09:45.417Z,85.24
2018-05-14T10:12:12.827Z,84.34
2018-05-14T10:14:39.856Z,84.07
2018-05-14T10:17:06.882Z,84.38
2018-05-14T10:19:34.185Z,83.91
2018-05-14T10:22:01.256Z,83.63
2018-05-14T10:24:28.486Z,84.13
2018-05-14T10:26:55.527Z,84.88
2018-05-14T10:29:22.532Z,83.90
2018-05-14T10:31:49.575Z,83.54
2018-05-14T10:34:16.613Z,82.77
2018-05-14T10:36:43.786Z,82.54
2018-05-14T10:39:10.846Z,82.20
2018-05-14T10:41:38.066Z,81.14
2018-05-14T10:44:05.110Z,80.75
2018-05-14T10:46:32.223Z,80.95
2018-05-14T10:48:59.226Z,81.32
2018-05-14T10:51:26.381Z,81.57
2018-05-14T10:53:53.663Z,82.82
2018-05-14T10:56:20.697Z,83.54
2018-05-14T10:58:47.697Z,83.06
2018-05-14T11:01:15.968Z,83.50
2018-05-14T11:03:43.432Z,84.33
2018-05-14T11:06:11.046Z,84.30
2018-05-14T11:08:38.920Z,84.16
2018-05-14T11:11:06.511Z,84.25
2018-05-14T11:13:34.290Z,84.49
2018-05-14T11:16:02.011Z,83.92
2018-05-14T11:18:29.659Z,83.43
2018-05-14T11:20:57.133Z,83.21
2018-05-14T11:23:24.626Z,83.27
2018-05-14T11:25:52.917Z,83.12
2018-05-14T11:28:20.411Z,83.33
2018-05-14T11:30:47.927Z,82.97
2018-05-14T11:33:15.514Z,82.79
2018-05-14T11:35:43.064Z,84.35
2018-05-14T11:38:10.571Z,84.72
2018-05-14T11:40:38.049Z,85.36
2018-05-14T11:43:05.572Z,84.77
2018-05-14T11:45:33.048Z,84.54
2018-05-14T11:48:00.567Z,83.00
2018-05-14T11:50:28.061Z,82.78
2018-05-14T11:52:55.702Z,82.52
2018-05-14T11:55:23.356Z,81.15
2018-05-14T11:57:50.856Z,81.13
2018-05-14T12:00:18.338Z,81.62
2018-05-14T12:02:45.893Z,82.14
2018-05-14T12:05:13.461Z,81.51
2018-05-14T12:07:40.976Z,82.06
2018-05-14T12:10:08.738Z,82.12
2018-05-14T12:12:35.817Z,81.05
2018-05-14T12:15:02.955Z,80.13
2018-05-14T12:17:29.986Z,78.06
2018-05-14T12:19:57.400Z,77.83
2018-05-14T12:22:24.414Z,78.08
2018-05-14T12:24:51.449Z,77.36
2018-05-14T12:27:18.762Z,78.21
2018-05-14T12:29:46.484Z,78.55
2018-05-14T12:32:13.508Z,77.74
2018-05-14T12:34:40.575Z,76.76
2018-05-14T12:37:07.700Z,76.47
2018-05-14T12:39:35.012Z,76.15
2018-05-14T12:42:02.326Z,76.25
2018-05-14T12:44:29.348Z,76.60
2018-05-14T12:46:56.446Z,76.36
2018-05-14T12:49:23.478Z,76.36
2018-05-14T12:51:50.602Z,77.21
2018-05-14T12:54:17.757Z,78.07
2018-05-14T12:56:44.981Z,78.27
2018-05-14T12:59:12.136Z,78.38
2018-05-14T13:01:39.376Z,78.18
2018-05-14T13:04:06.432Z,77.91
2018-05-14T13:06:33.539Z,77.37
2018-05-14T13:09:00.567Z,77.44
2018-05-14T13:11:27.689Z,77.08
2018-05-14T13:13:55.228Z,76.43
2018-05-14T13:16:22.297Z,76.48
2018-05-14T13:18:49.322Z,76.70
2018-05-14T13:21:17.081Z,77.75
2018-05-14T13:23:44.221Z,77.25
2018-05-14T13:26:11.362Z,76.35
2018-05-14T13:28:38.446Z,75.70
2018-05-14T13:31:05.511Z,75.75
2018-05-14T13:33:32.577Z,75.16
2018-05-14T13:35:59.766Z,74.62
2018-05-14T13:38:27.090Z,75.07
2018-05-14T13:40:54.247Z,75.54
2018-05-14T13:43:21.511Z,75.98
2018-05-14T13:45:48.556Z,76.11
2018-05-14T13:48:15.631Z,76.49
2018-05-14T13:50:42.688Z,76.19
2018-05-14T13:53:09.745Z,77.38
2018-05-14T13:55:36.862Z,77.50
2018-05-14T13:58:04.168Z,77.35
2018-05-14T14:00:31.434Z,77.50
2018-05-14T14:02:58.628Z,77.01
2018-05-14T14:05:25.655Z,75.36
2018-05-14T14:07:52.792Z,73.51
2018-05-14T14:10:19.807Z,73.19
2018-05-14T14:12:46.854Z,73.20
2018-05-14T14:15:14.118Z,74.13
2018-05-14T14:17:41.262Z,74.46
2018-05-14T14:20:08.277Z,75.11
2018-05-14T14:22:35.294Z,76.53
2018-05-14T14:25:02.353Z,76.78
2018-05-14T14:27:29.453Z,77.09
2018-05-14T14:29:57.677Z,78.30
2018-05-14T14:32:24.932Z,78.27
2018-05-14T14:34:51.958Z,78.74
2018-05-14T14:37:18.996Z,78.56
2018-05-14T14:39:46.009Z,79.00
2018-05-14T14:42:13.167Z,78.79
2018-05-14T14:44:40.324Z,78.26
2018-05-14T14:47:07.345Z,78.17
2018-05-14T14:49:35.405Z,78.16
2018-05-14T14:52:02.654Z,78.98
2018-05-14T14:54:29.704Z,78.55
2018-05-14T14:56:56.768Z,78.45
2018-05-14T14:59:23.978Z,77.56
2018-05-14T15:01:50.963Z,76.79
2018-05-14T15:04:17.994Z,76.36
2018-05-14T15:06:45.045Z,76.78
2018-05-14T15:09:12.163Z,76.71
2018-05-14T15:11:39.355Z,77.33
2018-05-14T15:14:08.015Z,77.38
2018-05-14T15:16:35.049Z,77.70
2018-05-14T15:19:02.444Z,78.41
2018-05-14T15:21:29.547Z,79.33
2018-05-14T15:23:56.678Z,79.09
2018-05-14T15:26:23.717Z,79.81
2018-05-14T15:28:50.870Z,79.67
2018-05-14T15:31:17.893Z,79.58
2018-05-14T15:33:44.969Z,79.95
2018-05-14T15:36:11.975Z,80.10
2018-05-14T15:38:39.026Z,80.08
2018-05-14T15:41:06.075Z,80.90
2018-05-14T15:43:33.147Z,80.51
2018-05-14T15:46:00.219Z,80.94
2018-05-14T15:48:27.357Z,81.41
2018-05-14T15:50:54.473Z,82.28
2018-05-14T15:53:22.561Z,82.13
2018-05-14T15:55:49.588Z,83.10
2018-05-14T15:58:16.698Z,83.53
2018-05-14T16:00:44.968Z,84.53
2018-05-14T16:03:12.072Z,84.30
2018-05-14T16:05:39.251Z,83.93
2018-05-14T16:08:06.510Z,83.29
2018-05-14T16:10:33.536Z,83.05
2018-05-14T16:13:00.580Z,83.35
2018-05-14T16:15:27.749Z,84.63
2018-05-14T16:17:55.224Z,85.37
2018-05-14T16:20:22.389Z,85.44
2018-05-14T16:22:50.392Z,86.07
2018-05-14T16:25:17.470Z,85.81
2018-05-14T16:27:44.603Z,85.32
2018-05-14T16:30:11.618Z,86.35
2018-05-14T16:32:38.634Z,86.35
2018-05-14T16:35:05.662Z,87.87
2018-05-14T16:37:32.672Z,88.43
2018-05-14T16:39:59.794Z,89.09
2018-05-14T16:42:26.830Z,89.31
2018-05-14T16:44:53.869Z,90.65
2018-05-14T16:47:20.894Z,90.48
2018-05-14T16:49:48.069Z,90.05
2018-05-14T16:52:15.364Z,89.67
2018-05-14T16:54:42.378Z,88.88
2018-05-14T16:57:09.410Z,89.06
2018-05-14T16:59:36.528Z,90.88
2018-05-14T17:02:03.572Z,91.04
2018-05-14T17:04:30.643Z,91.19
2018-05-14T17:06:57.895Z,90.61
2018-05-14T17:09:24.935Z,90.08
2018-05-14T17:11:52.049Z,90.45
2018-05-14T17:14:19.124Z,90.45
2018-05-14T17:16:47.118Z,89.38
2018-05-14T17:19:14.636Z,89.90
2018-05-14T17:21:41.703Z,89.85
2018-05-14T17:24:08.773Z,89.60
2018-05-14T17:26:35.905Z,89.72
2018-05-14T17:29:02.974Z,89.47
2018-05-14T17:31:30.087Z,89.85
2018-05-14T17:33:57.201Z,90.72
2018-05-14T17:36:24.835Z,90.36
2018-05-14T17:38:52.015Z,90.54
2018-05-14T17:41:19.046Z,90.65
2018-05-14T17:43:46.109Z,90.79
2018-05-14T17:46:13.166Z,90.72
2018-05-14T17:48:40.436Z,90.51
2018-05-14T17:51:07.585Z,90.77
2018-05-14T17:53:34.616Z,91.14
2018-05-14T17:56:01.648Z,91.40
2018-05-14T17:58:29.914Z,91.54
2018-05-14T18:00:56.999Z,91.81
2018-05-14T18:03:24.050Z,91.66
2018-05-14T18:05:51.985Z,92.06
2018-05-14T18:08:19.054Z,92.37
2018-05-14T18:10:46.157Z,91.97
2018-05-14T18:13:13.811Z,91.86
2018-05-14T18:15:40.898Z,92.39
2018-05-14T18:18:08.059Z,92.99
2018-05-14T18:20:38.123Z,93.66
2018-05-14T18:23:05.156Z,93.94
2018-05-14T18:25:37.886Z,94.17
2018-05-14T18:28:09.795Z,94.38
2018-05-14T18:30:39.873Z,95.15
2018-05-14T18:33:10.910Z,95.14
2018-05-14T18:38:31.878Z,95.33
2018-05-14T18:40:59.871Z,94.73
2018-05-14T18:43:27.081Z,94.82
2018-05-14T18:45:54.121Z,94.87
2018-05-14T18:48:21.155Z,94.77
2018-05-14T18:50:49.172Z,94.68
2018-05-14T18:53:16.379Z,94.56
2018-05-14T18:55:43.505Z,94.59
2018-05-14T18:58:10.727Z,95.03
2018-05-14T19:00:38.021Z,95.27
2018-05-14T19:03:05.106Z,95.11
2018-05-14T19:05:32.149Z,95.19
2018-05-14T19:07:59.461Z,95.28
2018-05-14T19:10:32.136Z,95.26
2018-05-14T19:12:59.186Z,94.80
2018-05-14T19:15:32.196Z,95.08
2018-05-14T19:18:00.151Z,94.88
2018-05-14T19:20:27.290Z,94.04
2018-05-14T19:23:00.134Z,94.17
2018-05-14T19:25:27.201Z,94.06
2018-05-14T19:27:59.839Z,94.29
2018-05-14T19:30:26.891Z,94.23
2018-05-14T19:32:53.940Z,94.32
2018-05-14T19:35:26.521Z,94.58
2018-05-14T19:37:53.577Z,95.75
2018-05-14T19:40:26.296Z,96.34
2018-05-14T19:42:53.540Z,96.25
2018-05-14T19:45:20.604Z,96.16
2018-05-14T19:47:47.772Z,95.86
2018-05-14T19:50:14.906Z,95.80
2018-05-14T19:52:43.152Z,95.44
2018-05-14T19:55:10.180Z,95.13
2018-05-14T19:57:37.253Z,95.25
2018-05-14T20:00:04.369Z,95.51
2018-05-14T20:02:31.520Z,95.58
2018-05-14T20:04:58.544Z,95.77
2018-05-14T20:07:25.638Z,95.44
2018-05-14T20:09:52.818Z,95.37
2018-05-14T20:12:19.849Z,95.48
2018-05-14T20:14:47.174Z,95.58
2018-05-14T20:17:14.226Z,95.64
2018-05-14T20:19:41.397Z,95.55
2018-05-14T20:22:08.666Z,95.40
2018-05-14T20:24:35.697Z,95.08
2018-05-14T20:27:02.838Z,94.62
2018-05-14T20:29:29.876Z,94.46
2018-05-14T20:31:56.891Z,94.51
2018-05-14T20:34:23.926Z,94.91
2018-05-14T20:36:50.988Z,94.90
2018-05-14T20:39:18.042Z,95.38
2018-05-14T20:41:45.115Z,95.57
2018-05-14T20:44:12.140Z,95.42
2018-05-14T20:46:39.197Z,94.77
2018-05-14T20:49:06.252Z,94.43
2018-05-14T20:51:33.264Z,94.46
2018-05-14T20:54:00.269Z,94.49
2018-05-14T20:56:27.386Z,94.48
2018-05-14T20:58:54.445Z,94.34
2018-05-14T21:01:21.488Z,94.34
2018-05-14T21:03:48.538Z,94.49
2018-05-14T21:06:15.705Z,95.17
2018-05-14T21:08:43.122Z,95.02
2018-05-14T21:11:10.151Z,94.93
2018-05-14T21:13:37.206Z,95.67
2018-05-14T21:16:04.505Z,95.82
2018-05-14T21:18:32.175Z,96.11
2018-05-14T21:20:59.226Z,96.36
2018-05-14T21:23:26.615Z,96.61
2018-05-14T21:25:53.862Z,96.50
2018-05-14T21:28:21.105Z,96.58
2018-05-14T21:30:48.294Z,96.54
2018-05-14T21:33:15.361Z,96.68
2018-05-14T21:35:43.006Z,96.74
2018-05-14T21:38:10.060Z,96.79
2018-05-14T21:40:37.093Z,97.18
2018-05-14T21:43:04.103Z,97.38
2018-05-14T21:45:31.213Z,97.56
2018-05-14T21:47:58.216Z,97.73
2018-05-14T21:50:25.369Z,97.88
2018-05-14T21:52:52.387Z,98.04
2018-05-14T21:55:19.463Z,98.09
2018-05-14T21:57:46.465Z,98.40
2018-05-14T22:00:13.720Z,98.68
2018-05-14T22:02:40.936Z,98.68
2018-05-14T22:05:08.120Z,98.74
2018-05-14T22:07:35.130Z,98.76
2018-05-14T22:10:02.193Z,98.79
2018-05-14T22:12:29.321Z,98.88
2018-05-14T22:14:56.424Z,98.96
2018-05-14T22:17:23.430Z,98.99
2018-05-14T22:19:50.496Z,99.20
2018-05-14T22:22:17.514Z,99.27
2018-05-14T22:24:44.601Z,99.45
2018-05-14T22:27:11.798Z,99.56
2018-05-14T22:29:38.828Z,99.52
2018-05-14T22:32:05.825Z,99.48
2018-05-14T22:34:32.855Z,99.20
2018-05-14T22:36:59.952Z,99.06
2018-05-14T22:39:27.041Z,98.97
2018-05-14T22:41:54.326Z,98.94
2018-05-14T22:44:21.941Z,99.34
2018-05-14T22:46:49.670Z,99.29
2018-05-14T22:49:17.675Z,99.09
2018-05-14T22:51:45.267Z,98.71
2018-05-14T22:54:12.792Z,98.68
2018-05-14T22:56:39.937Z,98.52
2018-05-14T22:59:07.162Z,98.33
2018-05-14T23:01:34.350Z,98.39
2018-05-14T23:04:01.453Z,98.33
2018-05-14T23:06:28.612Z,98.30
2018-05-14T23:08:56.461Z,98.12
2018-05-14T23:11:23.536Z,97.61
2018-05-14T23:13:50.887Z,97.74
2018-05-14T23:16:18.135Z,97.89
2018-05-14T23:18:45.205Z,97.93
2018-05-14T23:21:12.652Z,98.05
2018-05-14T23:23:39.772Z,98.09
2018-05-14T23:26:07.088Z,98.27
2018-05-14T23:28:34.101Z,98.30
2018-05-14T23:31:01.698Z,97.86
2018-05-14T23:33:28.872Z,97.45
2018-05-14T23:35:55.877Z,97.12
2018-05-14T23:38:22.902Z,96.79
2018-05-14T23:40:49.918Z,97.49
2018-05-14T23:43:17.072Z,98.24
2018-05-14T23:45:44.378Z,98.39
2018-05-14T23:48:12.589Z,98.70
2018-05-14T23:50:39.787Z,99.19
2018-05-14T23:53:07.370Z,99.46
2018-05-14T23:55:35.018Z,99.50
2018-05-14T23:58:02.679Z,99.46
